Time;durP1;ratioP1;P1;durP2;ratioP2;P2;SDS_P1;SDS_P2;PMS_P1;PMS_P2;Temp;Humidity;BMP_temperature;BMP_pressure;BME280_temperature;BME280_humidity;BME280_pressure;Samples;Min_cycle;Max_cycle;Signal;HPM_P1;HPM_P2
2023/05/24 00:01:26;;;;;;;14.40;2.58;;;;;;;8.57;100.00;102306.56;5072881;28;20420;-51
2023/05/24 00:03:57;;;;;;;15.20;2.50;;;;;;;8.65;100.00;102308.94;5071972;28;20115;-52
2023/05/24 00:06:27;;;;;;;11.90;2.17;;;;;;;8.58;100.00;102294.31;5069249;28;20102;-52
2023/05/24 00:08:55;;;;;;;11.40;2.50;;;;;;;8.57;100.00;102295.22;5069497;28;20052;-53
2023/05/24 00:11:26;;;;;;;13.35;2.75;;;;;;;8.55;100.00;102297.91;5069260;28;20040;-52
2023/05/24 00:13:54;;;;;;;14.80;2.50;;;;;;;8.53;100.00;102297.06;5052010;28;20147;-54
2023/05/24 00:16:22;;;;;;;13.20;2.92;;;;;;;8.56;100.00;102297.00;5049653;28;20040;-54
2023/05/24 00:18:51;;;;;;;13.93;2.90;;;;;;;8.51;100.00;102298.91;5071348;28;20135;-52
2023/05/24 00:21:19;;;;;;;13.52;3.22;;;;;;;8.49;100.00;102287.59;5070662;28;20974;-54
2023/05/24 00:23:47;;;;;;;10.85;2.42;;;;;;;8.37;100.00;102288.84;5069364;28;20036;-52
2023/05/24 00:26:15;;;;;;;12.05;2.35;;;;;;;8.33;100.00;102281.13;5069258;28;20054;-54
2023/05/24 00:28:45;;;;;;;11.57;2.35;;;;;;;8.33;100.00;102278.50;5069505;28;20067;-52
2023/05/24 00:31:13;;;;;;;14.00;2.63;;;;;;;8.20;100.00;102271.03;5067975;28;20052;-52
2023/05/24 00:33:41;;;;;;;17.05;3.47;;;;;;;8.11;100.00;102269.59;5068997;28;20041;-51
2023/05/24 00:36:09;;;;;;;17.15;3.00;;;;;;;8.13;100.00;102273.00;5050895;28;20060;-51
2023/05/24 00:38:38;;;;;;;12.98;3.60;;;;;;;8.08;100.00;102271.44;5068255;28;20041;-52
2023/05/24 00:41:06;;;;;;;10.57;2.95;;;;;;;8.02;100.00;102269.03;5069085;28;20807;-52
2023/05/24 00:43:35;;;;;;;12.40;2.85;;;;;;;8.03;100.00;102270.72;5069180;28;20143;-51
2023/05/24 00:46:16;;;;;;;13.60;2.65;;;;;;;8.06;100.00;102265.41;5070280;28;20044;-52
2023/05/24 00:48:45;;;;;;;13.45;2.60;;;;;;;8.18;100.00;102277.22;5069905;28;20055;-51
2023/05/24 00:51:13;;;;;;;10.82;2.97;;;;;;;8.06;100.00;102265.41;5069066;28;20392;-52
2023/05/24 00:53:45;;;;;;;12.60;2.53;;;;;;;8.02;100.00;102263.78;5068681;28;20052;-53
2023/05/24 00:56:14;;;;;;;13.50;2.95;;;;;;;7.96;100.00;102259.56;5069609;28;20048;-52
2023/05/24 00:58:43;;;;;;;11.75;2.75;;;;;;;7.97;100.00;102257.81;5051336;28;20044;-61
2023/05/24 01:01:13;;;;;;;12.75;2.72;;;;;;;7.93;100.00;102255.31;5067593;28;20147;-60
2023/05/24 01:03:42;;;;;;;15.95;3.30;;;;;;;7.78;100.00;102259.25;5068407;28;20506;-61
2023/05/24 01:06:10;;;;;;;16.67;2.85;;;;;;;7.79;100.00;102255.72;5068739;28;20072;-62
2023/05/24 01:08:48;;;;;;;13.57;2.95;;;;;;;7.84;100.00;102254.72;5068340;28;20067;-62
2023/05/24 01:11:26;;;;;;;13.57;2.95;;;;;;;7.89;100.00;102263.28;5050783;28;20064;-62
2023/05/24 01:14:04;;;;;;;9.18;2.83;;;;;;;7.91;100.00;102261.50;5069294;28;20032;-61
2023/05/24 01:16:45;;;;;;;13.35;3.05;;;;;;;7.94;100.00;102256.16;5067509;28;20057;-60
2023/05/24 01:19:42;;;;;;;13.85;3.28;;;;;;;7.87;100.00;102263.34;5069065;28;20098;-60
2023/05/24 01:22:28;;;;;;;11.40;2.90;;;;;;;7.81;100.00;102258.28;5067977;28;20137;-60
2023/05/24 01:25:03;;;;;;;17.33;2.72;;;;;;;7.77;100.00;102252.31;5068758;28;20052;-62
2023/05/24 01:27:36;;;;;;;15.05;2.95;;;;;;;7.79;100.00;102262.72;5068290;28;20056;-61
2023/05/24 01:30:05;;;;;;;11.20;2.60;;;;;;;7.74;100.00;102264.63;5068910;28;20048;-61
2023/05/24 01:32:33;;;;;;;18.08;3.47;;;;;;;7.75;100.00;102261.94;5049217;28;20044;-60
2023/05/24 01:35:01;;;;;;;15.43;3.53;;;;;;;7.77;100.00;102256.66;5069002;28;20040;-60
2023/05/24 01:37:30;;;;;;;13.88;3.40;;;;;;;7.69;100.00;102256.91;5067082;28;20044;-61
2023/05/24 01:39:58;;;;;;;17.15;3.00;;;;;;;7.65;100.00;102264.91;5049806;28;20044;-61
2023/05/24 01:42:34;;;;;;;12.60;2.97;;;;;;;7.66;100.00;102256.16;5062746;28;20060;-61
2023/05/24 01:45:08;;;;;;;14.05;2.60;;;;;;;7.66;100.00;102267.47;5069154;28;20159;-60
2023/05/24 01:47:56;;;;;;;13.30;2.63;;;;;;;7.53;100.00;102258.28;5068511;28;20100;-61
2023/05/24 01:50:28;;;;;;;9.55;2.45;;;;;;;7.41;100.00;102262.97;5068605;28;20052;-60
2023/05/24 01:53:02;;;;;;;12.52;3.30;;;;;;;7.41;100.00;102260.34;5068717;28;20055;-61
2023/05/24 01:55:32;;;;;;;14.57;3.10;;;;;;;7.42;100.00;102256.00;5068350;28;20429;-61
2023/05/24 01:58:04;;;;;;;16.60;3.38;;;;;;;7.49;100.00;102260.13;5067840;28;20591;-61
2023/05/24 02:00:35;;;;;;;9.55;2.40;;;;;;;7.45;100.00;102267.19;5071326;28;20132;-60
2023/05/24 02:03:03;;;;;;;10.48;2.65;;;;;;;7.44;100.00;102262.03;5072107;28;20053;-61
2023/05/24 02:05:32;;;;;;;11.75;2.67;;;;;;;7.34;100.00;102263.19;5053739;28;20407;-52
2023/05/24 02:08:00;;;;;;;17.65;3.22;;;;;;;7.25;100.00;102261.69;5071537;28;20063;-52
2023/05/24 02:10:29;;;;;;;14.45;3.22;;;;;;;7.38;100.00;102262.22;5071682;28;20518;-52
2023/05/24 02:12:58;;;;;;;14.52;3.03;;;;;;;7.25;100.00;102257.34;5070649;28;20051;-52
2023/05/24 02:15:29;;;;;;;11.18;2.67;;;;;;;7.24;100.00;102254.72;5071474;28;20041;-50
2023/05/24 02:18:00;;;;;;;12.07;3.30;;;;;;;7.18;100.00;102255.78;5072017;28;20395;-52
2023/05/24 02:20:29;;;;;;;13.65;3.80;;;;;;;7.18;100.00;102261.00;5071630;28;20553;-52
2023/05/24 02:22:58;;;;;;;14.07;3.80;;;;;;;7.19;100.00;102261.88;5071741;28;20791;-54
2023/05/24 02:25:27;;;;;;;10.88;2.78;;;;;;;7.14;100.00;102259.38;5071611;28;20527;-49
2023/05/24 02:27:56;;;;;;;15.63;3.25;;;;;;;7.07;100.00;102253.47;5071023;28;20533;-48
2023/05/24 02:30:24;;;;;;;12.40;3.15;;;;;;;7.08;100.00;102254.34;5053297;28;21069;-49
2023/05/24 02:32:52;;;;;;;12.57;2.95;;;;;;;7.08;100.00;102264.78;5072228;28;20486;-48
2023/05/24 02:35:22;;;;;;;13.30;2.75;;;;;;;7.13;100.00;102251.56;5071917;28;20097;-50
2023/05/24 02:37:50;;;;;;;14.73;3.30;;;;;;;7.26;100.00;102255.56;5070861;28;20436;-51
2023/05/24 02:40:18;;;;;;;15.68;3.22;;;;;;;7.17;100.00;102254.09;5071387;28;20044;-50
2023/05/24 02:42:46;;;;;;;11.43;3.03;;;;;;;7.15;100.00;102255.88;5069855;28;20098;-49
2023/05/24 02:45:14;;;;;;;14.45;3.17;;;;;;;7.21;100.00;102258.31;5071300;28;20087;-48
2023/05/24 02:47:43;;;;;;;11.10;3.10;;;;;;;7.14;100.00;102256.75;5071382;28;20044;-50
2023/05/24 02:50:11;;;;;;;14.80;3.53;;;;;;;7.10;100.00;102258.63;5071408;28;20102;-59
2023/05/24 02:52:40;;;;;;;10.02;3.05;;;;;;;7.05;100.00;102249.19;5071238;28;20491;-60
2023/05/24 02:55:10;;;;;;;14.90;3.17;;;;;;;7.10;100.00;102257.75;5071742;28;20045;-61
2023/05/24 02:57:38;;;;;;;11.00;2.50;;;;;;;7.06;100.00;102258.72;5069801;28;20048;-60
2023/05/24 03:00:09;;;;;;;12.60;3.03;;;;;;;7.03;100.00;102256.22;5071587;28;20794;-59
2023/05/24 03:02:39;;;;;;;13.57;2.90;;;;;;;7.02;100.00;102252.75;5070947;28;20063;-49
2023/05/24 03:05:08;;;;;;;14.30;3.35;;;;;;;6.96;100.00;102254.66;5071125;28;20116;-51
2023/05/24 03:07:36;;;;;;;11.57;2.90;;;;;;;7.02;100.00;102249.25;5070326;28;20102;-50
2023/05/24 03:10:07;;;;;;;17.65;3.25;;;;;;;7.03;100.00;102246.59;5070791;28;20055;-49
2023/05/24 03:12:37;;;;;;;14.05;3.10;;;;;;;7.00;100.00;102245.84;5069308;28;20479;-52
2023/05/24 03:15:07;;;;;;;14.88;3.45;;;;;;;6.98;100.00;102248.50;5071708;28;20353;-60
2023/05/24 03:17:35;;;;;;;13.80;3.47;;;;;;;6.97;100.00;102246.78;5071527;28;20044;-60
2023/05/24 03:20:04;;;;;;;16.92;3.00;;;;;;;6.84;100.00;102245.41;5071974;28;20127;-61
2023/05/24 03:22:32;;;;;;;14.05;3.08;;;;;;;6.96;100.00;102233.75;5071202;28;20057;-61
2023/05/24 03:25:01;;;;;;;13.93;2.90;;;;;;;6.91;100.00;102232.13;5071895;28;20102;-60
2023/05/24 03:27:30;;;;;;;12.32;3.20;;;;;;;6.94;100.00;102233.78;5069898;28;20037;-61
2023/05/24 03:29:58;;;;;;;12.95;3.50;;;;;;;6.85;100.00;102224.44;5071963;28;20388;-60
2023/05/24 03:32:27;;;;;;;12.30;3.28;;;;;;;6.86;100.00;102223.53;5071490;28;20563;-60
2023/05/24 03:34:56;;;;;;;11.77;3.55;;;;;;;6.81;100.00;102235.03;5071917;28;20055;-60
2023/05/24 03:37:24;;;;;;;11.13;3.13;;;;;;;6.77;100.00;102231.63;5071068;28;20455;-60
2023/05/24 03:39:52;;;;;;;14.60;3.35;;;;;;;6.85;100.00;102228.81;5071873;28;20044;-60
2023/05/24 03:42:21;;;;;;;15.30;4.40;;;;;;;6.75;100.00;102236.06;5052269;28;20448;-61
2023/05/24 03:44:50;;;;;;;11.68;3.22;;;;;;;6.71;100.00;102231.81;5071187;28;20395;-60
2023/05/24 03:47:19;;;;;;;13.23;3.40;;;;;;;6.72;100.00;102238.72;5072258;28;20032;-60
2023/05/24 03:49:47;;;;;;;12.88;4.57;;;;;;;6.76;100.00;102230.78;5073583;28;20146;-60
2023/05/24 03:52:15;;;;;;;12.70;3.60;;;;;;;6.77;100.00;102237.69;5071225;28;20041;-60
2023/05/24 03:54:44;;;;;;;12.55;3.50;;;;;;;6.75;100.00;102236.06;5071230;28;20071;-61
2023/05/24 03:57:12;;;;;;;11.48;3.33;;;;;;;6.76;100.00;102225.56;5070582;28;20051;-61
2023/05/24 03:59:41;;;;;;;13.95;3.88;;;;;;;6.77;100.00;102235.09;5073682;28;20132;-60
2023/05/24 04:02:10;;;;;;;13.80;4.03;;;;;;;6.81;100.00;102229.78;5073315;28;20052;-60
2023/05/24 04:04:38;;;;;;;18.63;4.43;;;;;;;6.72;100.00;102230.88;5071392;28;20110;-60
2023/05/24 04:07:10;;;;;;;13.30;3.60;;;;;;;6.69;100.00;102233.59;5071196;28;20091;-60
2023/05/24 04:09:39;;;;;;;14.85;4.40;;;;;;;6.66;100.00;102228.44;5070962;28;20059;-60
2023/05/24 04:12:07;;;;;;;15.90;4.20;;;;;;;6.63;100.00;102231.16;5069817;28;20086;-60
2023/05/24 04:14:35;;;;;;;17.00;4.15;;;;;;;6.60;100.00;102225.09;5072128;28;20057;-60
2023/05/24 04:17:05;;;;;;;24.75;5.03;;;;;;;6.60;100.00;102222.47;5073122;28;20051;-59
2023/05/24 04:19:34;;;;;;;18.08;5.30;;;;;;;6.63;100.00;102225.94;5073404;28;20067;-60
2023/05/24 04:22:02;;;;;;;20.92;5.15;;;;;;;6.65;100.00;102235.41;5072215;28;20446;-60
2023/05/24 04:24:31;;;;;;;18.30;4.85;;;;;;;6.67;100.00;102232.78;5072901;28;20387;-60
2023/05/24 04:26:59;;;;;;;17.77;4.60;;;;;;;6.74;100.00;102231.72;5071773;28;20036;-60
2023/05/24 04:29:27;;;;;;;14.98;4.60;;;;;;;6.76;100.00;102235.13;5053183;28;20060;-60
2023/05/24 04:31:55;;;;;;;20.70;5.55;;;;;;;6.79;100.00;102236.81;5070619;28;20051;-61
2023/05/24 04:34:24;;;;;;;18.15;4.63;;;;;;;6.85;100.00;102241.88;5054965;28;20044;-59
2023/05/24 04:36:53;;;;;;;17.17;4.78;;;;;;;6.94;100.00;102239.03;5072918;28;20091;-60
2023/05/24 04:39:21;;;;;;;16.13;4.28;;;;;;;6.97;100.00;102244.16;5071973;28;20072;-60
2023/05/24 04:41:51;;;;;;;16.45;4.15;;;;;;;7.02;100.00;102241.41;5069665;28;20085;-60
2023/05/24 04:44:20;;;;;;;17.98;4.80;;;;;;;7.04;100.00;102247.47;5071606;28;20121;-60
2023/05/24 04:46:50;;;;;;;14.85;4.45;;;;;;;7.11;100.00;102243.78;5071910;28;20047;-60
2023/05/24 04:49:19;;;;;;;20.67;4.85;;;;;;;7.17;100.00;102248.84;5070580;28;20052;-59
2023/05/24 04:51:47;;;;;;;21.40;5.13;;;;;;;7.25;100.00;102244.25;5070149;28;20056;-61
2023/05/24 04:54:17;;;;;;;14.15;4.20;;;;;;;7.34;100.00;102252.72;5070580;28;20067;-60
2023/05/24 04:56:45;;;;;;;17.55;5.05;;;;;;;7.38;100.00;102249.97;5069876;28;20040;-60
2023/05/24 04:59:13;;;;;;;14.90;5.15;;;;;;;7.44;100.00;102252.44;5071055;28;20050;-59
2023/05/24 05:01:41;;;;;;;16.73;4.75;;;;;;;7.51;100.00;102258.34;5070372;28;20131;-61
2023/05/24 05:04:09;;;;;;;19.77;5.60;;;;;;;7.55;100.00;102254.72;5071353;28;20040;-60
2023/05/24 05:06:39;;;;;;;16.60;5.43;;;;;;;7.65;100.00;102257.03;5072457;28;20036;-60
2023/05/24 05:09:09;;;;;;;23.60;5.55;;;;;;;7.73;100.00;102249.81;5070462;28;20106;-60
2023/05/24 05:11:39;;;;;;;22.65;5.30;;;;;;;7.81;100.00;102236.47;5069084;28;20044;-60
2023/05/24 05:14:08;;;;;;;19.77;5.00;;;;;;;7.90;100.00;102241.44;5070189;28;20045;-60
2023/05/24 05:16:37;;;;;;;22.48;5.15;;;;;;;7.98;100.00;102251.69;5070907;28;20059;-60
2023/05/24 05:19:06;;;;;;;16.40;4.80;;;;;;;8.06;100.00;102249.69;5072521;28;20044;-61
2023/05/24 05:21:35;;;;;;;19.45;5.30;;;;;;;8.12;100.00;102252.09;5070301;28;20098;-60
2023/05/24 05:24:03;;;;;;;18.27;4.60;;;;;;;8.25;100.00;102258.66;5069955;28;20083;-60
2023/05/24 05:26:31;;;;;;;18.45;5.03;;;;;;;8.30;100.00;102250.63;5071537;28;20044;-59
2023/05/24 05:29:01;;;;;;;17.70;4.78;;;;;;;8.40;100.00;102243.31;5070076;28;20411;-60
2023/05/24 05:31:30;;;;;;;15.77;4.82;;;;;;;8.49;100.00;102250.03;5069730;28;20051;-59
2023/05/24 05:34:01;;;;;;;21.15;4.80;;;;;;;8.59;100.00;102254.91;5072831;28;20123;-59
2023/05/24 05:36:29;;;;;;;20.73;4.70;;;;;;;8.65;100.00;102253.84;5075226;28;20072;-61
2023/05/24 05:38:57;;;;;;;19.65;4.32;;;;;;;8.77;100.00;102256.03;5075754;28;20059;-61
2023/05/24 05:41:27;;;;;;;22.60;5.53;;;;;;;8.95;100.00;102251.91;5055244;28;20459;-60
2023/05/24 05:43:55;;;;;;;18.58;4.97;;;;;;;9.05;100.00;102255.09;5055998;28;20045;-59
2023/05/24 05:46:25;;;;;;;17.73;5.25;;;;;;;9.11;100.00;102256.63;5074782;28;20110;-60
2023/05/24 05:48:53;;;;;;;21.48;5.03;;;;;;;9.16;100.00;102259.06;5073805;28;20052;-60
2023/05/24 05:51:22;;;;;;;19.85;5.30;;;;;;;9.32;100.00;102259.38;5073933;28;20048;-61
2023/05/24 05:53:50;;;;;;;24.10;5.10;;;;;;;9.32;100.00;102262.84;5058208;28;20097;-61
2023/05/24 05:56:18;;;;;;;18.17;5.18;;;;;;;9.40;100.00;102259.94;5075591;28;20067;-61
2023/05/24 05:58:46;;;;;;;22.02;5.22;;;;;;;9.41;100.00;102259.03;5075019;28;20440;-60
2023/05/24 06:01:15;;;;;;;18.85;5.05;;;;;;;9.46;100.00;102262.31;5074286;28;20135;-62
2023/05/24 06:03:45;;;;;;;17.02;5.07;;;;;;;9.58;100.00;102263.63;5074823;28;20048;-61
2023/05/24 06:06:14;;;;;;;18.70;5.50;;;;;;;9.72;100.00;102263.97;5075684;28;20456;-61
2023/05/24 06:08:42;;;;;;;16.50;4.93;;;;;;;9.81;100.00;102270.59;5057762;28;20052;-60
2023/05/24 06:11:10;;;;;;;22.48;6.05;;;;;;;10.04;100.00;102266.22;5075711;28;20036;-61
2023/05/24 06:13:38;;;;;;;16.25;5.35;;;;;;;10.20;100.00;102269.06;5076073;28;20527;-62
2023/05/24 06:16:08;;;;;;;20.45;4.78;;;;;;;10.43;100.00;102261.13;5073962;28;20056;-60
2023/05/24 06:18:37;;;;;;;21.13;5.95;;;;;;;10.49;100.00;102270.53;5056552;28;20496;-61
2023/05/24 06:21:09;;;;;;;19.77;5.25;;;;;;;10.61;100.00;102280.53;5074341;28;20040;-59
2023/05/24 06:23:37;;;;;;;17.57;4.37;;;;;;;10.63;100.00;102283.97;5074595;28;20041;-61
2023/05/24 06:26:07;;;;;;;20.67;4.80;;;;;;;10.67;100.00;102287.31;5071211;28;20412;-60
2023/05/24 06:28:36;;;;;;;26.23;5.57;;;;;;;10.60;100.00;102286.72;5075027;28;20082;-60
2023/05/24 06:31:04;;;;;;;20.17;5.35;;;;;;;10.74;100.00;102293.16;5075270;28;20044;-60
2023/05/24 06:33:33;;;;;;;20.48;5.45;;;;;;;10.90;100.00;102296.84;5075117;28;20488;-60
2023/05/24 06:36:06;;;;;;;20.90;4.90;;;;;;;10.95;100.00;102292.25;5074508;28;20059;-60
2023/05/24 06:38:35;;;;;;;18.45;4.47;;;;;;;11.15;100.00;102298.41;5073837;28;20051;-59
2023/05/24 06:41:03;;;;;;;19.30;5.18;;;;;;;11.19;100.00;102302.59;5073006;28;20053;-60
2023/05/24 06:43:32;;;;;;;17.98;4.65;;;;;;;11.18;100.00;102300.03;5072229;28;20114;-52
2023/05/24 06:46:00;;;;;;;18.95;4.95;;;;;;;11.27;100.00;102297.84;5071110;28;20048;-53
2023/05/24 06:48:28;;;;;;;19.00;5.60;;;;;;;11.35;100.00;102300.13;5071710;28;20052;-51
2023/05/24 06:50:56;;;;;;;16.10;4.53;;;;;;;11.38;100.00;102297.34;5073631;28;20424;-60
2023/05/24 06:53:26;;;;;;;22.95;4.85;;;;;;;11.42;100.00;102296.28;5073223;28;20495;-61
2023/05/24 06:55:54;;;;;;;20.05;4.63;;;;;;;11.58;100.00;102299.09;5073411;28;20380;-61
2023/05/24 06:58:24;;;;;;;16.02;4.18;;;;;;;11.67;100.00;102297.81;5073402;28;20048;-60
2023/05/24 07:00:53;;;;;;;17.63;5.38;;;;;;;11.76;100.00;102296.53;5055040;28;20048;-60
2023/05/24 07:03:21;;;;;;;16.40;4.38;;;;;;;11.78;100.00;102294.66;5073158;28;20045;-49
2023/05/24 07:05:49;;;;;;;19.63;4.55;;;;;;;12.01;100.00;102301.50;5071491;28;20419;-52
2023/05/24 07:08:17;;;;;;;16.95;5.00;;;;;;;12.04;100.00;102300.50;5070663;28;20048;-52
2023/05/24 07:10:47;;;;;;;17.17;4.53;;;;;;;12.11;100.00;102300.16;5069876;28;20040;-53
2023/05/24 07:13:15;;;;;;;16.92;4.47;;;;;;;11.97;100.00;102303.44;5071471;28;20450;-50
2023/05/24 07:15:43;;;;;;;15.70;3.90;;;;;;;12.05;100.00;102307.50;5070906;28;20910;-53
2023/05/24 07:18:11;;;;;;;16.50;4.38;;;;;;;12.16;100.00;102306.06;5071214;28;20098;-52
2023/05/24 07:20:40;;;;;;;26.30;4.88;;;;;;;12.23;100.00;102311.00;5071024;28;20051;-53
2023/05/24 07:23:08;;;;;;;18.20;4.47;;;;;;;12.36;100.00;102311.28;5071321;28;20553;-48
2023/05/24 07:25:37;;;;;;;12.85;3.72;;;;;;;12.33;100.00;102315.75;5070276;28;20048;-50
2023/05/24 07:28:06;;;;;;;17.63;4.85;;;;;;;12.42;100.00;102308.31;5070634;28;20040;-51
2023/05/24 07:30:37;;;;;;;19.38;4.15;;;;;;;12.46;100.00;102312.50;5070596;28;20383;-50
2023/05/24 07:33:05;;;;;;;16.17;3.92;;;;;;;12.41;100.00;102306.63;5071242;28;20056;-52
2023/05/24 07:35:34;;;;;;;19.63;4.45;;;;;;;12.38;100.00;102305.00;5070588;28;20098;-51
2023/05/24 07:38:02;;;;;;;15.18;3.97;;;;;;;12.47;100.00;102301.88;5070486;28;20040;-54
2023/05/24 07:40:32;;;;;;;16.27;4.10;;;;;;;12.47;100.00;102304.53;5069617;28;20584;-51
2023/05/24 07:43:00;;;;;;;18.35;4.72;;;;;;;12.58;100.00;102314.53;5069486;28;20049;-53
2023/05/24 07:45:32;;;;;;;18.30;3.92;;;;;;;12.71;100.00;102312.16;5070230;28;20511;-52
2023/05/24 07:48:01;;;;;;;15.77;3.95;;;;;;;12.72;100.00;102308.59;5070453;28;20147;-54
2023/05/24 07:50:29;;;;;;;14.20;3.78;;;;;;;12.87;100.00;102311.34;5070169;28;20082;-53
2023/05/24 07:52:57;;;;;;;15.82;3.83;;;;;;;13.00;100.00;102291.31;5070165;28;20523;-53
2023/05/24 07:55:26;;;;;;;15.57;4.10;;;;;;;13.02;100.00;102295.56;5070380;28;20083;-54
2023/05/24 07:57:57;;;;;;;16.88;3.67;;;;;;;13.05;100.00;102293.69;5068503;28;20087;-50
2023/05/24 08:00:25;;;;;;;14.73;3.80;;;;;;;13.13;100.00;102296.78;5069480;28;20127;-53
2023/05/24 08:02:55;;;;;;;18.58;4.55;;;;;;;13.35;100.00;102292.09;5070351;28;20162;-52
2023/05/24 08:05:23;;;;;;;11.68;3.40;;;;;;;13.54;100.00;102296.41;5070126;28;20051;-50
2023/05/24 08:07:52;;;;;;;16.15;3.45;;;;;;;13.59;100.00;102299.63;5069731;28;20041;-53
2023/05/24 08:10:20;;;;;;;18.45;3.25;;;;;;;13.78;100.00;102293.31;5069995;28;20579;-51
2023/05/24 08:12:50;;;;;;;17.10;3.55;;;;;;;13.94;100.00;102298.63;5067980;28;20052;-53
2023/05/24 08:15:18;;;;;;;13.93;3.50;;;;;;;14.03;100.00;102295.47;5069869;28;20037;-53
2023/05/24 08:17:46;;;;;;;12.93;3.30;;;;;;;14.15;100.00;102289.47;5069957;28;20117;-53
2023/05/24 08:20:16;;;;;;;15.02;3.65;;;;;;;14.28;100.00;102286.09;5052307;28;20048;-53
2023/05/24 08:22:47;;;;;;;18.17;3.70;;;;;;;14.18;100.00;102285.78;5069445;28;20048;-53
2023/05/24 08:25:15;;;;;;;14.35;3.40;;;;;;;14.35;100.00;102285.63;5070436;28;20067;-50
2023/05/24 08:27:44;;;;;;;14.00;3.75;;;;;;;14.39;100.00;102290.78;5050167;28;20056;-54
2023/05/24 08:30:14;;;;;;;17.98;3.17;;;;;;;14.37;100.00;102283.78;5069619;28;20055;-53
2023/05/24 08:32:42;;;;;;;13.80;3.40;;;;;;;14.36;100.00;102287.34;5069908;28;20048;-51
2023/05/24 08:35:10;;;;;;;13.75;3.30;;;;;;;14.46;100.00;102287.66;5069821;28;20052;-52
2023/05/24 08:37:50;;;;;;;18.85;3.42;;;;;;;14.53;100.00;102288.16;5069177;28;20119;-50
2023/05/24 08:40:22;;;;;;;15.15;3.20;;;;;;;14.61;100.00;102283.25;5069037;28;20045;-52
2023/05/24 08:42:52;;;;;;;12.65;3.00;;;;;;;14.75;100.00;102284.25;5068152;28;20048;-51
2023/05/24 08:45:26;;;;;;;17.02;3.63;;;;;;;15.15;100.00;102288.00;5069555;28;20068;-54
2023/05/24 08:47:55;;;;;;;15.00;3.03;;;;;;;15.51;100.00;102293.72;5069915;28;20114;-54
2023/05/24 08:50:24;;;;;;;13.75;3.05;;;;;;;15.60;100.00;102287.84;5069785;28;20056;-54
2023/05/24 08:52:54;;;;;;;15.75;3.00;;;;;;;15.83;100.00;102290.88;5069423;28;20040;-55
2023/05/24 08:55:22;;;;;;;16.95;3.75;;;;;;;16.12;100.00;102282.81;5069576;28;20045;-53
2023/05/24 08:57:51;;;;;;;15.52;3.55;;;;;;;16.27;100.00;102276.47;5068338;28;20535;-54
2023/05/24 09:00:22;;;;;;;15.93;3.30;;;;;;;16.37;100.00;102271.38;5069864;28;20098;-55
2023/05/24 09:02:51;;;;;;;13.77;3.10;;;;;;;16.40;100.00;102279.13;5069700;28;20139;-54
2023/05/24 09:05:20;;;;;;;9.40;2.55;;;;;;;16.35;100.00;102270.66;5069729;28;20534;-54
2023/05/24 09:07:50;;;;;;;13.38;3.28;;;;;;;16.39;100.00;102278.31;5069714;28;20040;-55
2023/05/24 09:10:22;;;;;;;11.57;3.00;;;;;;;16.11;100.00;102281.94;5074952;28;20491;-62
2023/05/24 09:12:56;;;;;;;13.50;2.90;;;;;;;16.17;100.00;102275.38;5075090;28;20103;-62
2023/05/24 09:15:24;;;;;;;13.10;3.38;;;;;;;16.27;100.00;102265.84;5074183;28;20465;-63
2023/05/24 09:17:54;;;;;;;13.20;3.00;;;;;;;16.37;100.00;102266.09;5074188;28;20105;-55
2023/05/24 09:20:22;;;;;;;11.25;2.67;;;;;;;16.46;100.00;102277.91;5073492;28;20044;-55
2023/05/24 09:22:52;;;;;;;12.25;3.30;;;;;;;16.49;100.00;102278.53;5073539;28;20143;-54
2023/05/24 09:25:22;;;;;;;10.95;2.47;;;;;;;16.47;100.00;102282.25;5073310;28;20053;-54
2023/05/24 09:27:51;;;;;;;9.43;2.45;;;;;;;16.42;100.00;102271.09;5072084;28;20056;-52
2023/05/24 09:30:20;;;;;;;13.35;3.10;;;;;;;16.38;100.00;102279.25;5073104;28;20052;-54
2023/05/24 09:32:56;;;;;;;15.18;2.72;;;;;;;16.45;100.00;102285.00;5073314;28;20044;-54
2023/05/24 09:35:25;;;;;;;11.68;2.70;;;;;;;16.54;100.00;102279.06;5073266;28;20059;-53
2023/05/24 09:37:58;;;;;;;11.82;2.63;;;;;;;16.71;98.71;102279.72;5072731;28;20052;-53
2023/05/24 09:40:28;;;;;;;11.35;2.45;;;;;;;16.47;99.19;102271.63;5073021;28;20753;-51
2023/05/24 09:43:04;;;;;;;10.90;2.45;;;;;;;16.22;97.83;102274.13;5053756;28;20054;-55
2023/05/24 09:45:33;;;;;;;16.02;3.50;;;;;;;16.44;100.00;102272.66;5072739;28;20491;-55
2023/05/24 09:48:10;;;;;;;11.98;2.47;;;;;;;16.54;100.00;102281.72;5073206;28;20045;-55
2023/05/24 09:50:38;;;;;;;9.07;2.38;;;;;;;16.54;100.00;102276.41;5072202;28;20094;-53
2023/05/24 09:53:07;;;;;;;14.13;3.20;;;;;;;16.64;100.00;102284.59;5072390;28;20205;-54
2023/05/24 09:55:37;;;;;;;15.07;3.33;;;;;;;16.75;100.00;102272.41;5071338;28;20083;-54
2023/05/24 09:58:07;;;;;;;11.43;3.70;;;;;;;16.72;100.00;102276.13;5072203;28;20885;-55
2023/05/24 10:00:39;;;;;;;10.32;2.88;;;;;;;16.79;95.69;102276.56;5072208;28;20130;-57
2023/05/24 10:03:11;;;;;;;12.25;3.13;;;;;;;16.93;97.60;102279.13;5072572;28;20545;-56
2023/05/24 10:05:42;;;;;;;12.32;3.13;;;;;;;17.02;95.56;102270.50;5072039;28;20143;-55
2023/05/24 10:08:13;;;;;;;10.80;2.55;;;;;;;17.07;94.45;102270.19;5072339;28;20131;-54
2023/05/24 10:10:43;;;;;;;12.57;3.35;;;;;;;16.97;95.25;102274.44;5071297;28;20503;-56
2023/05/24 10:13:14;;;;;;;12.30;2.97;;;;;;;16.68;90.66;102274.63;5072355;28;20049;-56
2023/05/24 10:15:44;;;;;;;12.10;2.55;;;;;;;16.84;89.38;102269.97;5072594;28;20045;-53
2023/05/24 10:18:12;;;;;;;8.05;2.65;;;;;;;16.76;90.63;102276.78;5072642;28;20399;-55
2023/05/24 10:20:44;;;;;;;9.85;2.65;;;;;;;16.51;90.88;102278.41;5071061;28;20384;-54
2023/05/24 10:23:18;;;;;;;11.70;2.55;;;;;;;16.60;90.68;102279.63;5072293;28;20109;-56
2023/05/24 10:25:55;;;;;;;12.38;3.17;;;;;;;16.58;93.86;102278.84;5052633;28;20052;-54
2023/05/24 10:28:25;;;;;;;9.07;2.45;;;;;;;16.52;91.85;102286.31;5072085;28;20072;-55
2023/05/24 10:31:01;;;;;;;11.40;3.17;;;;;;;16.52;92.87;102280.13;5072373;28;20045;-54
2023/05/24 10:33:32;;;;;;;9.05;2.90;;;;;;;16.62;93.89;102278.56;5071677;28;20079;-53
2023/05/24 10:36:02;;;;;;;13.30;2.63;;;;;;;16.50;93.11;102282.88;5072074;28;20503;-54
2023/05/24 10:38:32;;;;;;;14.00;3.42;;;;;;;16.50;92.36;102282.06;5071849;28;20118;-56
2023/05/24 10:41:02;;;;;;;10.82;2.95;;;;;;;16.56;89.66;102276.31;5069847;28;20041;-53
2023/05/24 10:43:33;;;;;;;8.55;2.63;;;;;;;16.62;93.53;102278.56;5071672;28;20048;-53
2023/05/24 10:46:03;;;;;;;10.40;2.65;;;;;;;16.73;89.49;102275.19;5071727;28;20056;-54
2023/05/24 10:48:40;;;;;;;9.68;3.10;;;;;;;17.17;89.83;102276.56;5071479;28;20102;-55
2023/05/24 10:51:35;;;;;;;10.77;2.88;;;;;;;17.01;84.16;102271.47;5071258;28;20043;-54
2023/05/24 10:54:25;;;;;;;8.32;2.60;;;;;;;17.32;83.86;102261.31;5071903;28;20048;-54
2023/05/24 10:56:57;;;;;;;9.10;2.58;;;;;;;17.65;83.59;102259.00;5070268;28;20410;-54
2023/05/24 10:59:36;;;;;;;10.70;2.75;;;;;;;18.13;82.26;102250.19;5071258;28;20036;-54
2023/05/24 11:02:08;;;;;;;10.73;2.95;;;;;;;18.64;83.26;102244.50;5071300;28;20056;-56
2023/05/24 11:04:38;;;;;;;10.10;2.33;;;;;;;19.04;79.32;102251.22;5071484;28;20072;-54
2023/05/24 11:07:09;;;;;;;9.50;2.50;;;;;;;19.27;72.30;102243.22;5071261;28;20048;-56
2023/05/24 11:09:44;;;;;;;10.40;2.63;;;;;;;19.37;69.78;102245.03;5071120;28;20044;-56
2023/05/24 11:12:17;;;;;;;12.77;2.90;;;;;;;19.79;73.65;102246.13;5069750;28;20036;-56
2023/05/24 11:14:48;;;;;;;11.55;2.50;;;;;;;19.75;68.80;102249.03;5071560;28;20058;-55
2023/05/24 11:17:18;;;;;;;8.57;2.30;;;;;;;19.38;67.83;102240.53;5053061;28;20052;-56
2023/05/24 11:19:48;;;;;;;10.60;2.90;;;;;;;19.24;68.97;102231.81;5071436;28;20072;-56
2023/05/24 11:22:16;;;;;;;8.70;2.63;;;;;;;19.24;70.23;102236.31;5071050;28;20098;-55
2023/05/24 11:24:45;;;;;;;9.75;2.80;;;;;;;19.14;71.94;102232.69;5070538;28;20510;-52
2023/05/24 11:27:15;;;;;;;8.20;2.40;;;;;;;19.12;68.22;102230.13;5069533;28;20068;-55